Friday, May 27, 2016

  Over 48,494,314 pages visited!

GMT:
21:59
PACIFIC:
2:59:08 PM
MOUNTAIN:
3:59:08 PM

CENTRAL:
4:59:08 PM

EASTERN:
5:59:08 PM
ATLANTIC:
6:59:08 PM
NEWFOUNDLAND:
7:29:08 PM
 

 


Watches/Warnings
Current Conditions
Radar/Satellite
Lightning Images


Current Weather Conditions For TORONTO PEARSON,ON

 


A Few Clouds
 

Temperature: 30�C / 86�F
Dew Point: 17 �C / 63�F
Humidity: 46 %
Pressure: 1013.6 mbs (29.93 inches)
Visibility: 24.1 kms (15 SM)
Wind Direction: W (270�)
Wind Speed: 18.5 Km/h (11.5 MPH)
Max Wind Gust: No Gusts
Humidex: 35�C
WindChill: N/A
    

Observation Information

Date/Time: Friday, May 27, 2016 @ 21:43Z
Local Time:
Metar Coded: CYYZ 272143Z 27010KT 250V310 15SM SCT060TCU BKN070 BKN230 30/17 A2993 RMK TCU3AC2CI2 WSHFT 2131 SLP136 DENSITY ALT 2300FT

 

 

                   1997-2016 The Ontario Weather Page